Ana Sayfa
METAR-TAF:

METAR-TAF

Havaalanları :

St. Mary's, Alaska, Amerika Birleşik Devletleri

Enlem: 62-03N, Boylam: 163-18W, yükseklik: 95 m

Güncel hava durumu gözlemi

Rapor saat 06:56 UTC de 23 dakika önce yapıldı.
Rüzgar kuzeydan 9 kt
Sıcaklık 3°C
Nem 65%
Basınç 1013 hPa
Görüş mesafesi: 16.1 km
Açık gökyüzü

METAR: PASM 270656Z AUTO 35009KT 10SM CLR 03/M03 A2992 RMK AO2 SLP140 T00281028

Saat: 23:19 (07:19 UTC)


TAF: eksik

4.000'den fazla havaalanı için hava durumu gözlemleri ve tahminleri (METAR ve TAF raporları).

Kullanılabilir istasyonlar harita üzerinde sarı ve kırmızı noktalarla gösterilir.

İstasyonun adını görmek için fareyi noktanın üzerinde gezdirin.

Sonrasında hava gözlem ve tahminlerini görmek için tıklayın.

Haritayı değiştirmek için: yaklaştırmak için siyah artı işaretli yeşil düğmeye ve uzaklaştırmak için de eksi işaretli düğmeye hızla tıklayın; bitişik haritalar için yeşil okları kullanın.


METAR-TAF: